createdAt,value
2019-05-07T00:01:08.055Z,99.90
2019-05-07T00:03:37.238Z,99.90
2019-05-07T00:06:06.203Z,99.90
2019-05-07T00:08:35.032Z,99.90
2019-05-07T00:11:04.346Z,99.90
2019-05-07T00:13:33.926Z,99.90
2019-05-07T00:16:02.915Z,99.90
2019-05-07T00:18:32.409Z,99.90
2019-05-07T00:21:03.476Z,99.90
2019-05-07T00:23:32.759Z,99.90
2019-05-07T00:26:02.458Z,99.90
2019-05-07T00:28:32.533Z,99.90
2019-05-07T00:31:02.892Z,99.90
2019-05-07T00:33:32.896Z,99.90
2019-05-07T00:36:12.294Z,99.90
2019-05-07T00:38:43.220Z,99.90
2019-05-07T00:41:18.551Z,99.90
2019-05-07T00:43:49.774Z,99.90
2019-05-07T00:46:22.577Z,99.90
2019-05-07T00:48:52.759Z,99.90
2019-05-07T00:51:33.421Z,99.90
2019-05-07T00:54:03.719Z,99.90
2019-05-07T00:56:33.318Z,99.90
2019-05-07T00:59:02.735Z,99.90
2019-05-07T01:01:33.252Z,99.90
2019-05-07T01:04:02.809Z,99.90
2019-05-07T01:06:33.052Z,99.90
2019-05-07T01:09:03.357Z,99.90
2019-05-07T01:11:33.546Z,99.90
2019-05-07T01:14:03.383Z,99.90
2019-05-07T01:16:33.122Z,99.90
2019-05-07T01:19:02.418Z,99.90
2019-05-07T01:21:32.518Z,99.90
2019-05-07T01:24:03.309Z,99.90
2019-05-07T01:26:32.989Z,99.90
2019-05-07T01:29:03.251Z,99.90
2019-05-07T01:31:43.100Z,99.90
2019-05-07T01:34:24.185Z,99.90
2019-05-07T01:36:53.195Z,99.90
2019-05-07T01:39:23.143Z,99.90
2019-05-07T01:41:52.488Z,99.90
2019-05-07T01:44:22.227Z,99.90
2019-05-07T01:46:52.944Z,99.90
2019-05-07T01:49:24.069Z,99.90
2019-05-07T01:51:53.141Z,99.90
2019-05-07T01:54:23.834Z,99.90
2019-05-07T01:56:52.980Z,99.90
2019-05-07T01:59:22.625Z,99.90
2019-05-07T02:01:53.552Z,99.90
2019-05-07T02:04:44.767Z,99.90
2019-05-07T02:07:23.998Z,99.90
2019-05-07T02:09:58.298Z,99.90
2019-05-07T02:12:32.067Z,99.90
2019-05-07T02:15:02.706Z,99.90
2019-05-07T02:17:32.242Z,99.90
2019-05-07T02:20:02.621Z,99.90
2019-05-07T02:22:32.409Z,99.90
2019-05-07T02:25:03.335Z,99.90
2019-05-07T02:27:33.002Z,99.90
2019-05-07T02:30:04.280Z,99.90
2019-05-07T02:32:33.771Z,99.90
2019-05-07T02:35:04.264Z,99.90
2019-05-07T02:37:51.096Z,99.90
2019-05-07T02:40:26.991Z,99.90
2019-05-07T02:42:56.020Z,99.90
2019-05-07T02:45:33.203Z,99.90
2019-05-07T02:48:03.468Z,99.90
2019-05-07T02:50:39.076Z,99.90
2019-05-07T02:53:30.150Z,99.90
2019-05-07T02:55:59.130Z,99.90
2019-05-07T02:58:27.992Z,99.90
2019-05-07T03:00:57.197Z,99.90
2019-05-07T03:03:26.420Z,99.90
2019-05-07T03:05:55.639Z,99.90
2019-05-07T03:08:27.570Z,99.90
2019-05-07T03:10:56.733Z,99.90
2019-05-07T03:13:25.912Z,99.90
2019-05-07T03:15:55.148Z,99.90
2019-05-07T03:18:24.428Z,99.90
2019-05-07T03:20:58.209Z,99.90
2019-05-07T03:23:33.993Z,99.90
2019-05-07T03:26:24.328Z,99.90
2019-05-07T03:29:03.917Z,99.90
2019-05-07T03:31:56.313Z,99.90
2019-05-07T03:34:46.516Z,99.90
2019-05-07T03:37:14.328Z,99.90
2019-05-07T03:39:43.558Z,99.90
2019-05-07T03:42:13.561Z,99.90
2019-05-07T03:44:48.838Z,99.90
2019-05-07T03:47:23.585Z,99.90
2019-05-07T03:49:53.496Z,99.90
2019-05-07T03:52:24.404Z,99.90
2019-05-07T03:54:54.197Z,99.90
2019-05-07T03:57:24.028Z,99.90
2019-05-07T03:59:53.598Z,99.90
2019-05-07T04:02:23.773Z,99.90
2019-05-07T04:04:53.468Z,99.90
2019-05-07T04:07:23.355Z,99.90
2019-05-07T04:09:53.548Z,99.90
2019-05-07T04:12:23.808Z,99.90
2019-05-07T04:14:53.818Z,99.90
2019-05-07T04:17:26.706Z,99.90
2019-05-07T04:19:53.777Z,99.90
2019-05-07T04:22:26.459Z,99.90
2019-05-07T04:25:24.984Z,99.90
2019-05-07T04:28:04.413Z,99.90
2019-05-07T04:30:34.130Z,99.90
2019-05-07T04:33:04.841Z,99.90
2019-05-07T04:35:39.290Z,99.90
2019-05-07T04:38:09.293Z,99.90
2019-05-07T04:40:38.197Z,99.90
2019-05-07T04:43:07.375Z,99.90
2019-05-07T04:45:36.446Z,99.90
2019-05-07T04:48:06.018Z,99.90
2019-05-07T04:50:42.922Z,99.90
2019-05-07T04:53:08.688Z,99.90
2019-05-07T04:55:37.602Z,99.90
2019-05-07T04:58:08.981Z,99.90
2019-05-07T05:00:37.427Z,99.90
2019-05-07T05:03:25.500Z,99.90
2019-05-07T05:05:54.579Z,99.90
2019-05-07T05:08:23.878Z,99.90
2019-05-07T05:10:54.034Z,99.90
2019-05-07T05:13:23.932Z,99.90
2019-05-07T05:15:53.321Z,99.90
2019-05-07T05:18:22.570Z,99.90
2019-05-07T05:21:02.839Z,99.90
2019-05-07T05:23:46.932Z,99.90
2019-05-07T05:26:15.987Z,99.90
2019-05-07T05:28:45.330Z,99.90
2019-05-07T05:31:14.218Z,99.90
2019-05-07T05:33:43.364Z,99.90
2019-05-07T05:36:12.856Z,99.90
2019-05-07T05:38:42.547Z,99.90
2019-05-07T05:41:12.308Z,99.90
2019-05-07T05:43:56.171Z,99.90
2019-05-07T05:46:26.763Z,99.90
2019-05-07T05:48:55.860Z,99.90
2019-05-07T05:51:37.908Z,99.90
2019-05-07T05:54:31.722Z,99.90
2019-05-07T05:57:32.336Z,99.90
2019-05-07T06:00:21.926Z,99.90
2019-05-07T06:02:59.950Z,99.90
2019-05-07T06:05:48.192Z,99.90
2019-05-07T06:08:28.139Z,99.90
2019-05-07T06:11:09.055Z,99.90
2019-05-07T06:13:57.679Z,99.90
2019-05-07T06:16:32.742Z,99.90
2019-05-07T06:19:08.875Z,99.90
2019-05-07T06:22:13.274Z,99.90
2019-05-07T06:24:48.740Z,99.90
2019-05-07T06:27:17.832Z,99.90
2019-05-07T06:29:47.074Z,99.90
2019-05-07T06:32:17.767Z,99.90
2019-05-07T06:34:46.603Z,99.90
2019-05-07T06:37:15.615Z,99.90
2019-05-07T06:40:03.999Z,99.90
2019-05-07T06:42:52.392Z,99.90
2019-05-07T06:45:25.352Z,99.90
2019-05-07T06:47:54.563Z,99.90
2019-05-07T06:50:23.446Z,99.90
2019-05-07T06:52:52.360Z,99.90
2019-05-07T06:55:22.819Z,99.90
2019-05-07T06:57:53.206Z,99.90
2019-05-07T07:00:42.275Z,99.90
2019-05-07T07:03:22.387Z,99.90
2019-05-07T07:06:07.486Z,99.90
2019-05-07T07:08:44.843Z,99.90
2019-05-07T07:11:25.493Z,99.90
2019-05-07T07:13:55.148Z,99.90
2019-05-07T07:16:24.099Z,99.90
2019-05-07T07:18:55.698Z,99.90
2019-05-07T07:21:23.952Z,99.90
2019-05-07T07:23:53.169Z,99.90
2019-05-07T07:26:22.449Z,99.90
2019-05-07T07:28:52.528Z,99.90
2019-05-07T07:31:32.552Z,99.90
2019-05-07T07:34:03.362Z,99.90
2019-05-07T07:36:36.423Z,99.90
2019-05-07T07:39:07.221Z,99.90
2019-05-07T07:41:42.659Z,99.90
2019-05-07T07:44:13.233Z,99.90
2019-05-07T07:46:42.575Z,99.90
2019-05-07T07:49:14.902Z,99.90
2019-05-07T07:51:45.665Z,99.90
2019-05-07T07:54:13.530Z,99.90
2019-05-07T07:57:08.034Z,99.90
2019-05-07T08:00:14.130Z,99.90
2019-05-07T08:02:46.683Z,99.90
2019-05-07T08:05:15.857Z,99.90
2019-05-07T08:07:44.975Z,99.90
2019-05-07T08:10:14.746Z,99.90
2019-05-07T08:12:44.146Z,99.90
2019-05-07T08:15:20.292Z,99.90
2019-05-07T08:17:45.773Z,99.90
2019-05-07T08:20:16.787Z,99.90
2019-05-07T08:22:46.125Z,99.90
2019-05-07T08:25:15.894Z,99.90
2019-05-07T08:27:45.095Z,99.90
2019-05-07T08:30:18.239Z,99.90
2019-05-07T08:32:55.302Z,99.90
2019-05-07T08:35:46.483Z,99.90
2019-05-07T08:38:15.504Z,99.90
2019-05-07T08:40:44.797Z,99.90
2019-05-07T08:43:14.379Z,99.90
2019-05-07T08:45:55.388Z,99.90
2019-05-07T08:48:32.503Z,99.50
2019-05-07T08:51:02.543Z,99.90
2019-05-07T08:53:32.839Z,97.20
2019-05-07T08:56:03.296Z,98.70
2019-05-07T08:58:32.931Z,98.00
2019-05-07T09:01:03.063Z,94.70
2019-05-07T09:03:44.620Z,90.20
2019-05-07T09:06:14.800Z,90.80
2019-05-07T09:08:44.074Z,93.80
2019-05-07T09:11:13.423Z,90.60
2019-05-07T09:13:42.403Z,90.60
2019-05-07T09:16:12.910Z,90.30
2019-05-07T09:18:42.666Z,90.20
2019-05-07T09:21:12.621Z,93.20
2019-05-07T09:23:42.403Z,96.70
2019-05-07T09:26:13.633Z,91.90
2019-05-07T09:28:52.896Z,91.30
2019-05-07T09:31:32.292Z,92.60
2019-05-07T09:34:02.650Z,92.50
2019-05-07T09:36:38.100Z,86.60
2019-05-07T09:39:07.630Z,83.60
2019-05-07T09:41:36.598Z,85.80
2019-05-07T09:44:05.839Z,89.30
2019-05-07T09:46:34.933Z,92.10
2019-05-07T09:49:03.959Z,90.20
2019-05-07T09:51:33.223Z,90.70
2019-05-07T09:54:02.542Z,91.10
2019-05-07T09:56:32.101Z,90.50
2019-05-07T09:59:02.203Z,90.30
2019-05-07T10:01:32.090Z,90.10
2019-05-07T10:04:02.632Z,90.80
2019-05-07T10:06:32.144Z,90.40
2019-05-07T10:09:02.845Z,90.00
2019-05-07T10:11:38.799Z,90.70
2019-05-07T10:14:12.362Z,90.10
2019-05-07T10:16:47.580Z,86.10
2019-05-07T10:19:16.827Z,86.10
2019-05-07T10:21:46.031Z,84.30
2019-05-07T10:24:15.295Z,85.80
2019-05-07T10:26:44.607Z,90.30
2019-05-07T10:29:13.900Z,88.30
2019-05-07T10:31:43.570Z,88.10
2019-05-07T10:34:12.596Z,87.70
2019-05-07T10:36:42.181Z,88.60
2019-05-07T10:39:12.857Z,86.70
2019-05-07T10:41:42.562Z,86.30
2019-05-07T10:44:13.206Z,86.00
2019-05-07T10:47:01.884Z,90.00
2019-05-07T10:49:37.784Z,90.90
2019-05-07T10:52:06.987Z,90.40
2019-05-07T10:54:36.023Z,87.70
2019-05-07T10:57:05.318Z,85.80
2019-05-07T10:59:34.203Z,89.10
2019-05-07T11:02:09.190Z,91.40
2019-05-07T11:04:42.646Z,90.10
2019-05-07T11:07:09.037Z,89.70
2019-05-07T11:09:38.339Z,88.50
2019-05-07T11:12:07.546Z,89.40
2019-05-07T11:14:36.466Z,86.10
2019-05-07T11:17:18.029Z,84.50
2019-05-07T11:19:46.994Z,83.00
2019-05-07T11:22:17.096Z,78.20
2019-05-07T11:24:46.247Z,79.20
2019-05-07T11:27:15.536Z,82.40
2019-05-07T11:29:44.608Z,85.30
2019-05-07T11:32:13.753Z,86.90
2019-05-07T11:34:44.692Z,82.60
2019-05-07T11:37:13.966Z,83.00
2019-05-07T11:39:43.158Z,86.80
2019-05-07T11:42:34.954Z,83.40
2019-05-07T11:45:04.856Z,83.90
2019-05-07T11:47:34.826Z,87.00
2019-05-07T11:50:15.201Z,89.70
2019-05-07T11:52:49.155Z,86.60
2019-05-07T11:55:18.395Z,87.90
2019-05-07T11:57:47.458Z,83.10
2019-05-07T12:00:29.341Z,84.50
2019-05-07T12:02:58.554Z,82.10
2019-05-07T12:05:27.830Z,83.40
2019-05-07T12:07:57.089Z,82.90
2019-05-07T12:10:26.387Z,84.90
2019-05-07T12:12:55.194Z,83.20
2019-05-07T12:15:24.466Z,83.30
2019-05-07T12:17:53.675Z,82.60
2019-05-07T12:20:22.742Z,83.80
2019-05-07T12:22:52.121Z,85.80
2019-05-07T12:25:21.987Z,85.50
2019-05-07T12:27:52.535Z,85.40
2019-05-07T12:30:51.828Z,84.20
2019-05-07T12:33:38.952Z,83.20
2019-05-07T12:36:09.676Z,83.90
2019-05-07T12:38:39.175Z,87.40
2019-05-07T12:41:26.205Z,85.70
2019-05-07T12:43:55.103Z,83.70
2019-05-07T12:46:24.079Z,83.10
2019-05-07T12:48:53.679Z,81.70
2019-05-07T12:51:33.589Z,81.80
2019-05-07T12:54:02.951Z,80.80
2019-05-07T12:56:32.167Z,83.20
2019-05-07T12:59:02.209Z,82.10
2019-05-07T13:02:15.992Z,81.80
2019-05-07T13:04:33.918Z,82.50
2019-05-07T13:07:15.474Z,81.70
2019-05-07T13:09:45.124Z,80.60
2019-05-07T13:12:14.328Z,80.70
2019-05-07T13:14:43.518Z,81.40
2019-05-07T13:17:12.834Z,84.70
2019-05-07T13:19:42.131Z,83.60
2019-05-07T13:22:13.054Z,82.40
2019-05-07T13:24:42.505Z,82.10
2019-05-07T13:27:11.868Z,81.70
2019-05-07T13:29:42.509Z,80.40
2019-05-07T13:32:14.092Z,83.00
2019-05-07T13:34:43.207Z,83.90
2019-05-07T13:37:18.519Z,83.20
2019-05-07T13:39:52.216Z,86.50
2019-05-07T13:42:58.570Z,87.20
2019-05-07T13:45:35.087Z,82.40
2019-05-07T13:48:11.992Z,85.50
2019-05-07T13:50:42.004Z,83.80
2019-05-07T13:53:12.364Z,84.30
2019-05-07T13:55:42.344Z,82.80
2019-05-07T13:58:14.090Z,82.20
2019-05-07T14:00:50.388Z,85.30
2019-05-07T14:03:19.696Z,84.80
2019-05-07T14:05:48.847Z,83.00
2019-05-07T14:08:19.114Z,83.10
2019-05-07T14:10:48.740Z,85.90
2019-05-07T14:13:18.043Z,86.30
2019-05-07T14:16:06.086Z,88.20
2019-05-07T14:18:36.164Z,87.00
2019-05-07T14:21:05.225Z,85.30
2019-05-07T14:23:34.239Z,84.70
2019-05-07T14:26:03.545Z,84.90
2019-05-07T14:28:32.702Z,88.20
2019-05-07T14:31:01.974Z,86.50
2019-05-07T14:33:46.136Z,87.70
2019-05-07T14:36:18.598Z,86.10
2019-05-07T14:38:51.854Z,85.80
2019-05-07T14:41:22.898Z,81.80
2019-05-07T14:44:00.721Z,79.20
2019-05-07T14:46:43.578Z,80.00
2019-05-07T14:49:02.643Z,80.00
2019-05-07T14:51:32.591Z,81.30
2019-05-07T14:54:02.167Z,80.20
2019-05-07T14:56:32.257Z,83.60
2019-05-07T14:59:02.283Z,82.00
2019-05-07T15:01:33.780Z,84.30
2019-05-07T15:04:02.623Z,82.60
2019-05-07T15:06:32.614Z,81.70
2019-05-07T15:09:02.546Z,79.70
2019-05-07T15:11:32.609Z,76.30
2019-05-07T15:14:02.725Z,77.50
2019-05-07T15:16:32.091Z,80.70
2019-05-07T15:19:02.788Z,78.70
2019-05-07T15:21:32.450Z,76.70
2019-05-07T15:24:02.313Z,77.00
2019-05-07T15:26:32.591Z,76.40
2019-05-07T15:29:11.870Z,76.50
2019-05-07T15:31:58.279Z,77.20
2019-05-07T15:34:27.240Z,81.40
2019-05-07T15:36:56.963Z,76.70
2019-05-07T15:39:26.390Z,75.10
2019-05-07T15:41:55.588Z,75.40
2019-05-07T15:44:24.571Z,74.80
2019-05-07T15:46:55.734Z,73.40
2019-05-07T15:49:24.815Z,73.20
2019-05-07T15:51:55.355Z,74.00
2019-05-07T15:54:24.483Z,74.00
2019-05-07T15:56:55.930Z,72.30
2019-05-07T15:59:25.459Z,72.10
2019-05-07T16:01:59.902Z,76.40
2019-05-07T16:04:29.156Z,75.40
2019-05-07T16:06:59.759Z,74.50
2019-05-07T16:09:42.959Z,75.80
2019-05-07T16:12:12.212Z,76.30
2019-05-07T16:14:41.919Z,78.30
2019-05-07T16:17:18.708Z,76.90
2019-05-07T16:19:47.806Z,77.60
2019-05-07T16:22:23.878Z,78.10
2019-05-07T16:24:52.771Z,76.00
2019-05-07T16:27:22.432Z,75.10
2019-05-07T16:29:52.691Z,75.60
2019-05-07T16:32:23.935Z,74.60
2019-05-07T16:34:53.526Z,73.50
2019-05-07T16:37:22.942Z,73.90
2019-05-07T16:39:52.701Z,71.80
2019-05-07T16:42:22.465Z,73.70
2019-05-07T16:44:52.353Z,72.50
2019-05-07T16:47:22.845Z,73.40
2019-05-07T16:49:52.198Z,74.40
2019-05-07T16:52:22.507Z,74.70
2019-05-07T16:54:52.233Z,76.30
2019-05-07T16:57:45.198Z,75.60
2019-05-07T17:00:19.892Z,75.20
2019-05-07T17:02:51.647Z,75.40
2019-05-07T17:05:22.726Z,75.20
2019-05-07T17:07:57.163Z,74.20
2019-05-07T17:10:26.306Z,73.80
2019-05-07T17:12:55.978Z,72.40
2019-05-07T17:15:25.123Z,73.40
2019-05-07T17:17:59.296Z,75.10
2019-05-07T17:20:28.564Z,77.00
2019-05-07T17:22:57.555Z,81.20
2019-05-07T17:25:39.051Z,79.00
2019-05-07T17:28:08.382Z,80.90
2019-05-07T17:30:38.395Z,82.70
2019-05-07T17:33:08.065Z,84.30
2019-05-07T17:35:37.035Z,84.20
2019-05-07T17:38:09.662Z,85.20
2019-05-07T17:40:37.420Z,85.20
2019-05-07T17:43:06.423Z,85.60
2019-05-07T17:45:35.843Z,85.30
2019-05-07T17:48:05.203Z,84.80
2019-05-07T17:50:42.898Z,85.30
2019-05-07T17:53:12.132Z,85.70
2019-05-07T17:55:42.341Z,86.60
2019-05-07T17:58:12.924Z,86.30
2019-05-07T18:00:43.971Z,85.30
2019-05-07T18:03:32.852Z,83.30
2019-05-07T18:06:02.561Z,83.10
2019-05-07T18:08:32.484Z,85.30
2019-05-07T18:11:02.487Z,87.80
2019-05-07T18:13:32.412Z,89.00
2019-05-07T18:16:08.817Z,90.70
2019-05-07T18:18:37.635Z,91.60
2019-05-07T18:21:06.803Z,92.80
2019-05-07T18:23:36.079Z,94.90
2019-05-07T18:26:05.095Z,96.40
2019-05-07T18:28:34.261Z,97.80
2019-05-07T18:31:03.563Z,98.80
2019-05-07T18:33:41.859Z,99.90
2019-05-07T18:36:12.138Z,99.90
2019-05-07T18:38:42.378Z,99.90
2019-05-07T18:41:12.307Z,99.90
2019-05-07T18:43:42.161Z,99.90
2019-05-07T18:46:12.812Z,99.90
2019-05-07T18:48:42.619Z,99.90
2019-05-07T18:51:12.248Z,99.90
2019-05-07T18:53:42.489Z,99.90
2019-05-07T18:56:12.641Z,99.90
2019-05-07T18:58:42.618Z,99.90
2019-05-07T19:01:13.195Z,99.90
2019-05-07T19:03:42.164Z,99.90
2019-05-07T19:06:13.384Z,99.90
2019-05-07T19:08:42.568Z,99.90
2019-05-07T19:11:12.408Z,99.90
2019-05-07T19:13:42.220Z,99.90
2019-05-07T19:16:12.467Z,99.90
2019-05-07T19:18:43.072Z,99.90
2019-05-07T19:21:12.239Z,99.90
2019-05-07T19:23:42.349Z,99.90
2019-05-07T19:26:13.048Z,99.90
2019-05-07T19:28:42.508Z,99.90
2019-05-07T19:31:12.488Z,99.90
2019-05-07T19:33:42.008Z,99.90
2019-05-07T19:36:11.210Z,99.90
2019-05-07T19:38:42.086Z,99.90
2019-05-07T19:41:12.284Z,99.90
2019-05-07T19:43:41.997Z,99.90
2019-05-07T19:46:12.326Z,99.90
2019-05-07T19:48:43.861Z,99.90
2019-05-07T19:51:12.519Z,99.90
2019-05-07T19:53:42.049Z,99.90
2019-05-07T19:56:16.120Z,99.90
2019-05-07T19:58:45.115Z,99.90
2019-05-07T20:01:16.278Z,99.90
2019-05-07T20:03:45.108Z,99.90
2019-05-07T20:06:14.187Z,99.90
2019-05-07T20:08:43.903Z,99.90
2019-05-07T20:11:32.432Z,99.90
2019-05-07T20:14:02.055Z,99.90
2019-05-07T20:16:32.973Z,99.90
2019-05-07T20:19:02.375Z,99.90
2019-05-07T20:21:32.605Z,99.90
2019-05-07T20:24:01.932Z,99.90
2019-05-07T20:26:32.651Z,99.90
2019-05-07T20:29:03.094Z,99.90
2019-05-07T20:31:33.158Z,99.90
2019-05-07T20:34:02.775Z,99.90
2019-05-07T20:36:32.775Z,99.90
2019-05-07T20:39:02.365Z,99.90
2019-05-07T20:41:32.986Z,99.90
2019-05-07T20:44:02.970Z,99.90
2019-05-07T20:46:32.179Z,99.90
2019-05-07T20:49:02.906Z,99.90
2019-05-07T20:51:32.605Z,99.90
2019-05-07T20:54:12.808Z,99.90
2019-05-07T20:56:46.729Z,99.90
2019-05-07T20:59:16.184Z,99.90
2019-05-07T21:01:45.269Z,99.90
2019-05-07T21:04:14.363Z,99.90
2019-05-07T21:06:43.556Z,99.90
2019-05-07T21:09:13.068Z,99.90
2019-05-07T21:11:43.032Z,99.90
2019-05-07T21:14:12.527Z,99.90
2019-05-07T21:16:42.489Z,99.90
2019-05-07T21:19:12.855Z,99.90
2019-05-07T21:21:42.293Z,99.90
2019-05-07T21:24:13.074Z,99.90
2019-05-07T21:26:42.432Z,99.90
2019-05-07T21:29:13.785Z,99.90
2019-05-07T21:31:43.270Z,99.90
2019-05-07T21:34:12.675Z,99.90
2019-05-07T21:36:43.282Z,99.90
2019-05-07T21:39:13.174Z,99.90
2019-05-07T21:41:42.847Z,99.90
2019-05-07T21:44:12.307Z,99.90
2019-05-07T21:46:42.613Z,99.90
2019-05-07T21:49:12.398Z,99.90
2019-05-07T21:51:41.831Z,99.90
2019-05-07T21:54:33.271Z,99.90
2019-05-07T21:57:09.809Z,99.90
2019-05-07T21:59:39.650Z,99.90
2019-05-07T22:02:14.637Z,99.90
2019-05-07T22:04:43.787Z,99.90
2019-05-07T22:07:12.782Z,99.90
2019-05-07T22:09:42.006Z,99.90
2019-05-07T22:12:12.138Z,99.90
2019-05-07T22:14:41.883Z,99.90
2019-05-07T22:17:12.759Z,99.90
2019-05-07T22:19:42.669Z,99.90
2019-05-07T22:22:12.424Z,99.90
2019-05-07T22:24:42.585Z,99.90
2019-05-07T22:27:12.886Z,99.90
2019-05-07T22:29:42.028Z,99.90
2019-05-07T22:32:30.349Z,99.90
2019-05-07T22:35:12.072Z,99.90
2019-05-07T22:37:40.982Z,99.90
2019-05-07T22:40:12.118Z,99.90
2019-05-07T22:42:40.970Z,99.90
2019-05-07T22:45:12.145Z,99.90
2019-05-07T22:47:41.974Z,99.90
2019-05-07T22:50:12.013Z,99.90
2019-05-07T22:52:41.540Z,99.90
2019-05-07T22:55:13.928Z,99.90
2019-05-07T22:58:06.820Z,99.90
2019-05-07T23:00:42.965Z,99.90
2019-05-07T23:03:12.421Z,99.90
2019-05-07T23:05:42.261Z,99.90
2019-05-07T23:08:12.827Z,99.90
2019-05-07T23:10:42.162Z,99.90
2019-05-07T23:13:13.429Z,99.90
2019-05-07T23:15:42.989Z,99.90
2019-05-07T23:18:13.025Z,99.90
2019-05-07T23:20:42.814Z,99.90
2019-05-07T23:23:14.173Z,99.90
2019-05-07T23:25:43.186Z,99.90
2019-05-07T23:28:12.682Z,99.90
2019-05-07T23:30:42.169Z,99.90
2019-05-07T23:33:12.800Z,99.90
2019-05-07T23:35:42.222Z,99.90
2019-05-07T23:38:12.964Z,99.90
2019-05-07T23:40:49.564Z,99.90
2019-05-07T23:43:18.592Z,99.90
2019-05-07T23:45:47.839Z,99.90
2019-05-07T23:48:16.679Z,99.90
2019-05-07T23:50:45.593Z,99.90
2019-05-07T23:53:14.734Z,99.90
2019-05-07T23:55:43.950Z,99.90
2019-05-07T23:58:14.117Z,99.90
